Evanston, WY

10:56 PM MST on December 02, 2016 (GMT -0700)
Evanston-Uinta County Burns | | Change Station

Elev 7142 ft 41.27 °N, 111.03 °W | Updated 3 minutes ago

Clear
Clear
11 °F
Feels Like 1 °F
N
6
Wind Variable Wind from SSW

Today
High -- | Low -- °F
--% Chance of Precip.
Yesterday
High -- | Low -- °F
Precip. -- in
Pressure 30.35 in
Visibility 10.0 miles
Clouds Clear
Windchill 1 °F
Dew Point 5 °F
Humidity 77%
Rainfall 0.00 in
Snow Depth Not available.
7:32 AM 4:55 PM
Waxing Crescent, 12% visible
METAR KEVW 030553Z AUTO 20005KT 10SM CLR M12/M15 A3017 RMK AO2 SLP275 T11171150 11067 21117 58000
Pressure 30.35 in
Visibility 10.0 miles
Clouds Clear
Windchill 1 °F
Dew Point 5 °F
Humidity 77%
Rainfall 0.00 in
Snow Depth Not available.
7:32 AM 4:55 PM
Waxing Crescent, 12% visible
METAR KEVW 030553Z AUTO 20005KT 10SM CLR M12/M15 A3017 RMK AO2 SLP275 T11171150 11067 21117 58000

10-Day Weather Forecast

Almanac

Astronomy

Dec. 02, 2016 Rise Set
Actual Time
Civil Twilight
Nautical Twilight
Astronomical Twilight
Moon
Length of Visible Light
Length of Day
Tomorrow will be .
, % of the Moon is Illuminated

Today's Extremes

State Highs State Lows

Community

WunderPhotos

Upload Photos

1,955,427 photos uploaded!

WunderBlog® & News

Nearby

Air Quality

  Air Quality AQ Index Pollutant
Not available.

Snow Depth

Station Depth Elevation

Earthquake Activity

City Distance Mag. Time & Date
Minimum magnitude displayed is 2.5.

Coastal Water Temperatures

Place Temperature

Stations

Nearby Weather Stations

Station Location Temp. Windchill Dew Point Humidity Wind Precip. Elev Updated Type
                   

Watches & Warnings

There are currently no watches in effect.